Time;durP1;ratioP1;P1;durP2;ratioP2;P2;SDS_P1;SDS_P2;PMS_P1;PMS_P2;Temp;Humidity;BMP_temperature;BMP_pressure;BME280_temperature;BME280_humidity;BME280_pressure;Samples;Min_cycle;Max_cycle;Signal;HPM_P1;HPM_P2
2023/09/16 00:01:59;;;;;;;3.95;2.00;;;;;;;;;;5081004;28;20059;-68
2023/09/16 00:04:27;;;;;;;3.95;2.28;;;;;;;;;;5087247;28;20464;-69
2023/09/16 00:06:53;;;;;;;5.07;2.33;;;;;;;;;;5085386;28;20059;-70
2023/09/16 00:09:19;;;;;;;6.88;2.30;;;;;;;;;;5084641;28;20040;-70
2023/09/16 00:11:45;;;;;;;8.43;3.05;;;;;;;;;;5083343;28;20562;-69
2023/09/16 00:14:11;;;;;;;5.82;2.60;;;;;;;;;;5086016;28;20048;-71
2023/09/16 00:16:37;;;;;;;6.68;2.30;;;;;;;;;;5082413;28;20122;-70
2023/09/16 00:19:03;;;;;;;4.60;2.40;;;;;;;;;;5084823;28;20479;-70
2023/09/16 00:21:29;;;;;;;6.38;2.40;;;;;;;;;;5086108;28;20048;-71
2023/09/16 00:23:56;;;;;;;6.95;2.78;;;;;;;;;;5087058;27;20063;-71
2023/09/16 00:26:22;;;;;;;7.30;2.83;;;;;;;;;;5079841;28;20542;-70
2023/09/16 00:28:48;;;;;;;7.78;2.80;;;;;;;;;;5083328;28;20052;-69
2023/09/16 00:31:14;;;;;;;7.80;2.70;;;;;;;;;;5086241;28;20060;-70
2023/09/16 00:33:41;;;;;;;7.85;2.50;;;;;;;;;;5083084;28;20135;-71
2023/09/16 00:36:08;;;;;;;7.22;2.90;;;;;;;;;;5086373;28;20419;-70
2023/09/16 00:38:34;;;;;;;5.07;2.83;;;;;;;;;;5089213;28;20445;-70
2023/09/16 00:41:02;;;;;;;9.23;2.97;;;;;;;;;;5078213;28;20486;-68
2023/09/16 00:43:28;;;;;;;4.70;2.90;;;;;;;;;;5085420;28;20055;-70
2023/09/16 00:45:55;;;;;;;6.90;2.55;;;;;;;;;;5077471;28;20059;-69
2023/09/16 00:48:23;;;;;;;7.55;2.65;;;;;;;;;;5086659;28;20048;-68
2023/09/16 00:50:49;;;;;;;7.10;2.63;;;;;;;;;;5084980;28;20448;-69
2023/09/16 00:53:15;;;;;;;5.95;2.60;;;;;;;;;;5078727;28;20052;-70
2023/09/16 00:55:47;;;;;;;5.63;3.03;;;;;;;;;;5083699;28;20325;-68
2023/09/16 00:58:17;;;;;;;4.82;2.80;;;;;;;;;;5087264;28;20051;-70
2023/09/16 01:00:45;;;;;;;7.30;2.75;;;;;;;;;;5082669;28;20066;-71
2023/09/16 01:03:11;;;;;;;4.35;2.90;;;;;;;;;;5080010;28;20071;-70
2023/09/16 01:05:38;;;;;;;5.53;2.78;;;;;;;;;;5085697;28;20083;-69
2023/09/16 01:08:04;;;;;;;4.70;2.53;;;;;;;;;;5079329;28;20396;-69
2023/09/16 01:10:32;;;;;;;9.18;2.72;;;;;;;;;;5084070;28;20199;-69
2023/09/16 01:12:59;;;;;;;7.82;3.15;;;;;;;;;;5079781;28;20066;-69
2023/09/16 01:15:31;;;;;;;6.53;2.88;;;;;;;;;;5083008;28;20044;-71
2023/09/16 01:18:11;;;;;;;10.52;3.10;;;;;;;;;;5078664;28;20102;-70
2023/09/16 01:20:39;;;;;;;6.70;3.28;;;;;;;;;;5080357;28;20056;-69
2023/09/16 01:23:06;;;;;;;7.22;3.10;;;;;;;;;;5081557;28;20486;-71
2023/09/16 01:25:32;;;;;;;6.07;3.10;;;;;;;;;;5078871;28;20052;-69
2023/09/16 01:27:58;;;;;;;6.20;3.25;;;;;;;;;;5079055;28;20073;-73
2023/09/16 01:30:27;;;;;;;6.85;2.83;;;;;;;;;;5082522;28;20048;-70
2023/09/16 01:33:08;;;;;;;5.45;2.95;;;;;;;;;;5079535;28;20135;-69
2023/09/16 01:35:37;;;;;;;7.97;3.53;;;;;;;;;;5078251;28;20055;-69
2023/09/16 01:38:05;;;;;;;6.78;3.33;;;;;;;;;;5084124;28;20048;-71
2023/09/16 01:40:33;;;;;;;9.27;3.63;;;;;;;;;;5080765;28;20068;-70
2023/09/16 01:43:02;;;;;;;10.77;3.70;;;;;;;;;;5079215;28;20050;-69
2023/09/16 01:45:44;;;;;;;11.88;3.90;;;;;;;;;;5079192;28;20048;-67
2023/09/16 01:48:14;;;;;;;7.95;3.35;;;;;;;;;;5072030;28;20164;-70
2023/09/16 01:50:40;;;;;;;5.90;3.70;;;;;;;;;;5074023;28;20516;-70
2023/09/16 01:53:07;;;;;;;8.15;3.58;;;;;;;;;;5083646;28;20066;-69
2023/09/16 01:55:34;;;;;;;9.23;3.72;;;;;;;;;;5084248;28;20052;-73
2023/09/16 01:57:59;;;;;;;11.32;3.38;;;;;;;;;;5081977;28;20051;-69
2023/09/16 02:00:26;;;;;;;7.25;3.60;;;;;;;;;;5080077;28;20056;-68
2023/09/16 02:02:53;;;;;;;6.47;3.70;;;;;;;;;;5078475;28;20517;-68
2023/09/16 02:05:19;;;;;;;8.10;3.80;;;;;;;;;;5076973;28;20385;-68
2023/09/16 02:07:46;;;;;;;10.15;3.78;;;;;;;;;;5086073;28;20874;-69
2023/09/16 02:10:13;;;;;;;8.63;3.97;;;;;;;;;;5085402;28;20066;-73
2023/09/16 02:12:39;;;;;;;12.13;4.35;;;;;;;;;;5083714;28;20055;-69
2023/09/16 02:15:07;;;;;;;9.18;4.35;;;;;;;;;;5075639;28;20048;-68
2023/09/16 02:17:34;;;;;;;12.43;4.55;;;;;;;;;;5075133;28;20455;-70
2023/09/16 02:20:00;;;;;;;10.15;4.00;;;;;;;;;;5076194;28;20052;-69
2023/09/16 02:22:26;;;;;;;10.00;4.45;;;;;;;;;;5076168;28;20050;-69
2023/09/16 02:24:52;;;;;;;8.93;4.65;;;;;;;;;;5079810;28;20059;-68
2023/09/16 02:27:18;;;;;;;8.98;3.92;;;;;;;;;;5079492;28;20044;-69
2023/09/16 02:29:48;;;;;;;9.88;4.20;;;;;;;;;;5081503;28;20457;-70
2023/09/16 02:32:15;;;;;;;8.40;3.95;;;;;;;;;;5083151;28;20416;-73
2023/09/16 02:34:42;;;;;;;10.15;4.47;;;;;;;;;;5078337;28;20068;-68
2023/09/16 02:37:08;;;;;;;9.82;4.07;;;;;;;;;;5076374;28;20052;-69
2023/09/16 02:39:34;;;;;;;12.57;4.43;;;;;;;;;;5078746;28;20051;-69
2023/09/16 02:42:00;;;;;;;9.63;4.20;;;;;;;;;;5077737;28;20044;-68
2023/09/16 02:44:29;;;;;;;8.48;3.72;;;;;;;;;;5083700;28;20187;-69
2023/09/16 02:46:56;;;;;;;15.45;4.40;;;;;;;;;;5082363;28;20044;-70
2023/09/16 02:49:22;;;;;;;10.45;4.35;;;;;;;;;;5080405;28;20400;-69
2023/09/16 02:51:48;;;;;;;10.35;3.50;;;;;;;;;;5094081;28;20625;-69
2023/09/16 02:54:15;;;;;;;8.57;3.75;;;;;;;;;;5080975;28;20032;-69
2023/09/16 02:56:40;;;;;;;8.77;3.45;;;;;;;;;;5072399;28;20056;-69
2023/09/16 02:59:06;;;;;;;14.07;3.30;;;;;;;;;;5080043;28;20055;-66
2023/09/16 03:01:32;;;;;;;6.28;3.40;;;;;;;;;;5078054;28;20425;-69
2023/09/16 03:04:00;;;;;;;7.03;3.30;;;;;;;;;;5077214;28;20154;-71
2023/09/16 03:06:26;;;;;;;8.55;3.65;;;;;;;;;;5073946;28;20171;-70
2023/09/16 03:08:52;;;;;;;7.55;3.42;;;;;;;;;;5081955;28;20076;-69
2023/09/16 03:11:19;;;;;;;11.63;3.78;;;;;;;;;;5077096;28;20821;-70
2023/09/16 03:13:45;;;;;;;6.47;3.30;;;;;;;;;;5077569;28;20460;-70
2023/09/16 03:16:18;;;;;;;8.65;3.40;;;;;;;;;;5077036;28;20075;-69
2023/09/16 03:18:47;;;;;;;9.30;3.92;;;;;;;;;;5076085;28;20048;-69
2023/09/16 03:21:14;;;;;;;6.45;3.72;;;;;;;;;;5078731;28;20040;-70
2023/09/16 03:23:41;;;;;;;5.10;3.00;;;;;;;;;;5077988;28;20549;-69
2023/09/16 03:26:09;;;;;;;6.30;2.90;;;;;;;;;;5080708;28;20051;-70
2023/09/16 03:28:35;;;;;;;9.38;3.28;;;;;;;;;;5073000;28;20110;-71
2023/09/16 03:31:01;;;;;;;10.35;3.55;;;;;;;;;;5080422;28;20138;-70
2023/09/16 03:33:33;;;;;;;10.45;3.30;;;;;;;;;;5080639;28;20048;-70
2023/09/16 03:35:59;;;;;;;6.07;2.60;;;;;;;;;;5084631;28;20044;-69
2023/09/16 03:38:29;;;;;;;7.50;3.15;;;;;;;;;;5082792;28;20044;-69
2023/09/16 03:40:55;;;;;;;8.20;3.50;;;;;;;;;;5078427;28;20086;-72
2023/09/16 03:43:21;;;;;;;8.25;3.40;;;;;;;;;;5083849;28;20082;-68
2023/09/16 03:45:47;;;;;;;5.90;3.03;;;;;;;;;;5083898;28;20044;-68
2023/09/16 03:48:13;;;;;;;9.30;3.50;;;;;;;;;;5085593;28;20067;-69
2023/09/16 03:50:40;;;;;;;8.60;3.05;;;;;;;;;;5084232;28;20134;-68
2023/09/16 03:53:07;;;;;;;4.95;3.40;;;;;;;;;;5084223;28;20093;-69
2023/09/16 03:55:34;;;;;;;6.50;2.97;;;;;;;;;;5081848;28;20050;-69
2023/09/16 03:58:03;;;;;;;7.53;3.28;;;;;;;;;;5082825;28;20574;-68
2023/09/16 04:00:29;;;;;;;4.38;3.10;;;;;;;;;;5085375;28;20108;-69
2023/09/16 04:02:57;;;;;;;9.60;3.53;;;;;;;;;;5084038;28;20056;-70
2023/09/16 04:05:23;;;;;;;5.47;3.22;;;;;;;;;;5080298;28;20058;-68
2023/09/16 04:07:49;;;;;;;9.18;2.88;;;;;;;;;;5083238;28;20040;-70
2023/09/16 04:10:15;;;;;;;9.20;3.40;;;;;;;;;;5085290;28;20056;-71
2023/09/16 04:12:44;;;;;;;8.07;3.03;;;;;;;;;;5077721;28;20079;-68
2023/09/16 04:15:11;;;;;;;6.18;2.47;;;;;;;;;;5081382;28;20083;-69
2023/09/16 04:17:37;;;;;;;5.05;2.40;;;;;;;;;;5090220;27;20056;-68
2023/09/16 04:20:07;;;;;;;7.43;2.58;;;;;;;;;;5080574;28;20040;-68
2023/09/16 04:22:33;;;;;;;4.85;2.38;;;;;;;;;;5084294;28;20055;-68
2023/09/16 04:25:00;;;;;;;6.50;2.30;;;;;;;;;;5085070;28;20044;-69
2023/09/16 04:27:27;;;;;;;4.72;2.13;;;;;;;;;;5078218;28;20079;-70
2023/09/16 04:29:53;;;;;;;5.72;2.40;;;;;;;;;;5085833;28;20072;-72
2023/09/16 04:32:19;;;;;;;5.05;2.72;;;;;;;;;;5084687;28;20060;-72
2023/09/16 04:34:48;;;;;;;6.05;2.70;;;;;;;;;;5081472;28;20049;-69
2023/09/16 04:37:15;;;;;;;6.00;2.50;;;;;;;;;;5080009;28;20090;-69
2023/09/16 04:39:42;;;;;;;7.65;2.50;;;;;;;;;;5079761;28;20121;-71
2023/09/16 04:42:08;;;;;;;9.25;2.55;;;;;;;;;;5077518;28;20439;-71
2023/09/16 04:44:38;;;;;;;5.03;2.40;;;;;;;;;;5080466;28;20032;-70
2023/09/16 04:47:10;;;;;;;7.03;2.67;;;;;;;;;;5085932;28;20070;-71
2023/09/16 04:49:36;;;;;;;5.40;2.50;;;;;;;;;;5084204;28;20196;-69
2023/09/16 04:52:04;;;;;;;6.82;2.60;;;;;;;;;;5082023;28;20040;-70
2023/09/16 04:54:32;;;;;;;6.90;2.33;;;;;;;;;;5071619;28;20069;-70
2023/09/16 04:57:00;;;;;;;5.05;2.35;;;;;;;;;;5081721;28;20048;-73
2023/09/16 04:59:26;;;;;;;11.40;4.55;;;;;;;;;;5082931;28;20079;-71
2023/09/16 05:01:52;;;;;;;6.22;2.67;;;;;;;;;;5076817;28;20491;-69
2023/09/16 05:04:21;;;;;;;8.25;2.67;;;;;;;;;;5083659;28;20044;-72
2023/09/16 05:06:47;;;;;;;9.10;3.10;;;;;;;;;;5083558;28;20043;-68
2023/09/16 05:09:13;;;;;;;8.77;3.47;;;;;;;;;;5084356;28;20126;-69
2023/09/16 05:11:39;;;;;;;4.05;2.60;;;;;;;;;;5077141;28;20044;-68
2023/09/16 05:14:05;;;;;;;6.22;2.90;;;;;;;;;;5086926;28;20066;-70
2023/09/16 05:16:31;;;;;;;4.75;2.92;;;;;;;;;;5085106;28;20048;-71
2023/09/16 05:18:57;;;;;;;7.60;3.00;;;;;;;;;;5084841;28;20059;-70
2023/09/16 05:21:25;;;;;;;10.05;3.28;;;;;;;;;;5071183;28;20047;-72
2023/09/16 05:23:52;;;;;;;7.55;3.30;;;;;;;;;;5080184;28;20396;-70
2023/09/16 05:26:19;;;;;;;7.60;3.53;;;;;;;;;;5077954;28;20052;-74
2023/09/16 05:28:46;;;;;;;9.35;3.40;;;;;;;;;;5080303;28;20185;-71
2023/09/16 05:31:13;;;;;;;10.98;3.63;;;;;;;;;;5082270;28;20086;-73
2023/09/16 05:33:40;;;;;;;9.68;3.25;;;;;;;;;;5081174;28;20044;-70
2023/09/16 05:36:06;;;;;;;10.82;3.22;;;;;;;;;;5084120;28;20047;-71
2023/09/16 05:38:32;;;;;;;6.85;2.80;;;;;;;;;;5081780;28;20044;-70
2023/09/16 05:41:00;;;;;;;3.78;3.00;;;;;;;;;;5075991;28;20052;-70
2023/09/16 05:43:26;;;;;;;9.32;3.58;;;;;;;;;;5086033;28;20036;-69
2023/09/16 05:45:54;;;;;;;8.50;3.33;;;;;;;;;;5075755;28;20503;-69
2023/09/16 05:48:20;;;;;;;7.78;3.05;;;;;;;;;;5069045;28;20070;-71
2023/09/16 05:50:56;;;;;;;9.45;3.20;;;;;;;;;;5082010;28;20055;-70
2023/09/16 05:53:22;;;;;;;4.55;3.00;;;;;;;;;;5065880;28;20044;-71
2023/09/16 05:55:48;;;;;;;12.05;2.40;;;;;;;;;;5069700;28;20123;-69
2023/09/16 05:58:15;;;;;;;8.98;2.38;;;;;;;;;;5072708;28;20060;-68
2023/09/16 06:00:55;;;;;;;7.45;2.17;;;;;;;;;;5069682;28;20068;-69
2023/09/16 06:03:22;;;;;;;6.90;2.20;;;;;;;;;;5080478;28;20365;-69
2023/09/16 06:05:59;;;;;;;4.20;2.05;;;;;;;;;;5070809;28;20070;-69
2023/09/16 06:08:28;;;;;;;6.28;2.17;;;;;;;;;;5056378;28;20072;-70
2023/09/16 06:11:36;;;;;;;6.63;2.10;;;;;;;;;;5054015;28;20457;-72
2023/09/16 06:14:50;;;;;;;5.03;2.38;;;;;;;;;;5052980;28;20101;-74
2023/09/16 06:17:19;;;;;;;7.00;2.63;;;;;;;;;;5054529;28;20064;-76
2023/09/16 06:20:26;;;;;;;6.80;2.50;;;;;;;;;;5057333;28;20044;-76
2023/09/16 06:24:06;;;;;;;9.43;2.53;;;;;;;;;;5065646;28;20037;-77
2023/09/16 06:27:11;;;;;;;10.98;2.30;;;;;;;;;;5057048;28;20052;-77
2023/09/16 06:29:41;;;;;;;6.25;2.63;;;;;;;;;;5057357;28;20048;-77
2023/09/16 06:32:10;;;;;;;9.75;2.63;;;;;;;;;;5053637;28;20054;-76
2023/09/16 06:34:38;;;;;;;8.55;2.92;;;;;;;;;;5057520;28;20037;-78
2023/09/16 06:37:08;;;;;;;7.65;2.63;;;;;;;;;;5051345;28;20746;-76
2023/09/16 06:39:34;;;;;;;11.93;3.70;;;;;;;;;;5056919;28;20071;-77
2023/09/16 06:42:07;;;;;;;11.82;3.97;;;;;;;;;;5054227;28;20048;-79
2023/09/16 06:44:35;;;;;;;10.10;3.40;;;;;;;;;;5057250;28;20106;-77
2023/09/16 06:47:01;;;;;;;8.18;2.70;;;;;;;;;;5060973;28;20048;-79
2023/09/16 06:49:28;;;;;;;4.20;2.55;;;;;;;;;;5070215;28;20048;-77
2023/09/16 06:51:54;;;;;;;6.93;2.85;;;;;;;;;;5065948;28;20359;-79
2023/09/16 06:54:25;;;;;;;6.97;2.35;;;;;;;;;;5067085;28;20044;-77
2023/09/16 06:56:51;;;;;;;7.05;2.60;;;;;;;;;;5072926;28;20048;-80
2023/09/16 06:59:18;;;;;;;9.15;3.20;;;;;;;;;;5058657;28;20048;-75
2023/09/16 07:01:44;;;;;;;4.57;2.90;;;;;;;;;;5072441;28;20079;-83
2023/09/16 07:04:11;;;;;;;7.57;2.70;;;;;;;;;;5075926;28;20065;-80
2023/09/16 07:06:40;;;;;;;8.15;2.35;;;;;;;;;;5080842;28;20056;-83
2023/09/16 07:09:06;;;;;;;7.35;2.83;;;;;;;;;;5084070;28;20028;-83
2023/09/16 07:11:32;;;;;;;5.07;2.25;;;;;;;;;;5083650;28;20028;-83
2023/09/16 07:13:59;;;;;;;8.95;2.40;;;;;;;;;;5115644;22;20037;-81
2023/09/16 07:17:15;;;;;;;6.43;2.63;;;;;;;;;;5056646;28;20048;-79
2023/09/16 07:20:55;;;;;;;5.80;2.20;;;;;;;;;;5050654;28;20069;-81
2023/09/16 07:24:37;;;;;;;9.40;2.33;;;;;;;;;;5029783;28;20087;-74
2023/09/16 07:28:20;;;;;;;7.55;2.60;;;;;;;;;;5032332;28;20052;-75
2023/09/16 07:32:00;;;;;;;7.03;2.70;;;;;;;;;;5031513;28;20140;-76
2023/09/16 07:35:40;;;;;;;8.55;2.45;;;;;;;;;;5042977;28;20072;-79
2023/09/16 07:39:21;;;;;;;10.52;2.60;;;;;;;;;;5037345;28;20431;-77
2023/09/16 07:43:01;;;;;;;8.55;3.22;;;;;;;;;;5035466;28;20068;-76
2023/09/16 07:46:41;;;;;;;10.88;3.20;;;;;;;;;;5032522;28;20283;-76
2023/09/16 07:50:25;;;;;;;8.35;3.03;;;;;;;;;;5039296;28;20076;-77
2023/09/16 07:54:06;;;;;;;12.27;2.63;;;;;;;;;;5040757;28;20513;-80
2023/09/16 07:57:46;;;;;;;6.57;3.00;;;;;;;;;;5037318;28;20046;-76
2023/09/16 08:01:29;;;;;;;8.52;2.45;;;;;;;;;;5038439;28;20099;-78
2023/09/16 08:05:10;;;;;;;14.25;3.58;;;;;;;;;;5034273;28;20405;-79
2023/09/16 08:08:50;;;;;;;7.20;2.72;;;;;;;;;;5032308;28;20177;-66
2023/09/16 08:11:51;;;;;;;11.05;2.65;;;;;;;;;;5028159;28;20062;-71
2023/09/16 08:14:18;;;;;;;6.13;2.30;;;;;;;;;;5028121;28;20066;-71
2023/09/16 08:16:45;;;;;;;7.20;2.67;;;;;;;;;;5025670;28;20091;-70
2023/09/16 08:19:12;;;;;;;6.88;3.15;;;;;;;;;;5044949;28;20058;-72
2023/09/16 08:21:38;;;;;;;10.98;2.30;;;;;;;;;;5031985;28;20441;-67
2023/09/16 08:24:05;;;;;;;9.43;2.35;;;;;;;;;;5030874;28;20642;-70
2023/09/16 08:26:31;;;;;;;15.35;2.60;;;;;;;;;;5027972;28;20033;-70
2023/09/16 08:28:57;;;;;;;8.13;2.40;;;;;;;;;;5032417;28;20057;-72
2023/09/16 08:31:24;;;;;;;10.15;2.78;;;;;;;;;;5029783;28;20057;-71
2023/09/16 08:33:55;;;;;;;8.88;2.20;;;;;;;;;;5033909;28;20064;-69
2023/09/16 08:36:22;;;;;;;6.20;2.13;;;;;;;;;;5032662;28;20064;-69
2023/09/16 08:38:48;;;;;;;11.20;2.38;;;;;;;;;;5025834;28;20052;-66
2023/09/16 08:41:21;;;;;;;7.13;2.58;;;;;;;;;;5027552;28;20448;-67
2023/09/16 08:43:51;;;;;;;9.68;2.67;;;;;;;;;;5033978;28;20521;-68
2023/09/16 08:46:21;;;;;;;9.95;2.35;;;;;;;;;;5031119;28;20048;-67
2023/09/16 08:48:54;;;;;;;9.68;2.65;;;;;;;;;;5029690;28;20048;-68
2023/09/16 08:51:21;;;;;;;9.15;2.22;;;;;;;;;;5029382;28;20061;-68
2023/09/16 08:53:51;;;;;;;5.15;2.28;;;;;;;;;;5033794;28;20072;-67
2023/09/16 08:56:17;;;;;;;6.45;2.33;;;;;;;;;;5029655;28;20130;-66
2023/09/16 08:58:44;;;;;;;10.02;2.60;;;;;;;;;;5034833;28;20053;-66
2023/09/16 09:01:13;;;;;;;5.85;2.00;;;;;;;;;;5035088;28;20800;-69
2023/09/16 09:03:40;;;;;;;7.15;2.30;;;;;;;;;;5029895;28;20045;-70
2023/09/16 09:06:07;;;;;;;8.82;2.25;;;;;;;;;;5028420;28;20063;-74
2023/09/16 09:08:34;;;;;;;13.00;2.50;;;;;;;;;;5031354;28;20094;-69
2023/09/16 09:11:01;;;;;;;11.85;2.20;;;;;;;;;;5032454;28;20052;-69
2023/09/16 09:13:28;;;;;;;12.10;2.85;;;;;;;;;;5030518;28;20098;-66
2023/09/16 09:15:59;;;;;;;8.15;3.08;;;;;;;;;;5031267;28;20062;-65
2023/09/16 09:18:28;;;;;;;9.10;2.05;;;;;;;;;;5046697;28;20064;-68
2023/09/16 09:20:54;;;;;;;7.72;2.40;;;;;;;;;;5029658;28;20444;-65
2023/09/16 09:23:21;;;;;;;7.85;2.67;;;;;;;;;;5035954;28;20045;-66
2023/09/16 09:26:27;;;;;;;11.65;2.45;;;;;;;;;;5024296;28;22100;-69
2023/09/16 09:30:08;;;;;;;10.40;2.40;;;;;;;;;;5029425;28;20099;-71
2023/09/16 09:33:51;;;;;;;6.30;2.03;;;;;;;;;;5027486;28;20042;-70
2023/09/16 09:37:35;;;;;;;7.93;2.38;;;;;;;;;;5029737;28;20465;-68
2023/09/16 09:41:19;;;;;;;7.60;2.22;;;;;;;;;;5030704;28;20033;-67
2023/09/16 09:44:59;;;;;;;8.70;2.70;;;;;;;;;;5033297;28;20146;-66
2023/09/16 09:48:39;;;;;;;7.90;2.22;;;;;;;;;;5033530;28;20136;-69
2023/09/16 09:52:21;;;;;;;6.68;2.10;;;;;;;;;;5035438;28;20083;-67
2023/09/16 09:56:04;;;;;;;10.07;2.28;;;;;;;;;;5028825;28;20080;-69
2023/09/16 09:59:14;;;;;;;13.40;2.10;;;;;;;;;;5032451;28;20060;-69
2023/09/16 10:01:42;;;;;;;11.13;2.20;;;;;;;;;;5031135;28;20083;-69
2023/09/16 10:04:09;;;;;;;6.63;2.13;;;;;;;;;;5031965;28;20049;-68
2023/09/16 10:07:17;;;;;;;5.80;2.20;;;;;;;;;;5019884;28;20102;-67
2023/09/16 10:10:58;;;;;;;8.60;2.40;;;;;;;;;;5026263;28;20049;-68
2023/09/16 10:14:39;;;;;;;10.07;3.35;;;;;;;;;;5025291;28;20050;-65
2023/09/16 10:18:22;;;;;;;6.88;2.40;;;;;;;;;;5023728;28;20061;-70
2023/09/16 10:22:04;;;;;;;7.47;2.58;;;;;;;;;;5027859;28;20631;-72
2023/09/16 10:25:48;;;;;;;9.00;2.60;;;;;;;;;;5024728;28;20133;-69
2023/09/16 10:29:31;;;;;;;9.10;2.45;;;;;;;;;;5034976;28;20389;-69
2023/09/16 10:33:12;;;;;;;7.43;2.42;;;;;;;;;;5041196;28;20255;-64
2023/09/16 10:36:14;;;;;;;5.15;2.20;;;;;;;;;;5038720;28;20054;-63
2023/09/16 10:38:42;;;;;;;9.15;2.13;;;;;;;;;;5044008;28;20068;-64
2023/09/16 10:41:48;;;;;;;5.93;2.10;;;;;;;;;;5046268;28;20586;-67
2023/09/16 10:45:28;;;;;;;8.18;2.13;;;;;;;;;;5043554;28;20044;-66
2023/09/16 10:49:11;;;;;;;10.50;2.88;;;;;;;;;;5037492;28;20068;-63
2023/09/16 10:52:53;;;;;;;8.35;2.63;;;;;;;;;;5046991;28;20052;-66
2023/09/16 10:56:02;;;;;;;11.23;3.03;;;;;;;;;;5034292;28;20048;-65
2023/09/16 10:58:42;;;;;;;8.60;2.50;;;;;;;;;;5037446;28;20701;-67
2023/09/16 11:01:14;;;;;;;5.70;2.28;;;;;;;;;;5045400;28;20072;-63
2023/09/16 11:03:50;;;;;;;11.10;2.63;;;;;;;;;;5027965;28;20056;-68
2023/09/16 11:06:16;;;;;;;10.10;2.53;;;;;;;;;;5037243;28;20045;-68
2023/09/16 11:08:42;;;;;;;4.43;2.35;;;;;;;;;;5032587;28;20065;-65
2023/09/16 11:11:11;;;;;;;9.57;2.85;;;;;;;;;;5032612;28;20088;-70
2023/09/16 11:13:39;;;;;;;8.82;3.03;;;;;;;;;;5035807;28;20453;-66
2023/09/16 11:16:09;;;;;;;11.43;2.90;;;;;;;;;;5037104;28;20057;-69
2023/09/16 11:18:40;;;;;;;10.52;2.75;;;;;;;;;;5034028;28;20143;-67
2023/09/16 11:21:45;;;;;;;8.98;2.97;;;;;;;;;;5046478;28;20507;-66
2023/09/16 11:25:26;;;;;;;8.88;2.75;;;;;;;;;;5047706;28;20064;-64
2023/09/16 11:29:09;;;;;;;6.18;2.55;;;;;;;;;;5038430;28;20119;-67
2023/09/16 11:32:50;;;;;;;7.32;2.40;;;;;;;;;;5045115;28;20111;-73
2023/09/16 11:36:16;;;;;;;9.80;2.50;;;;;;;;;;5041383;28;20037;-69
2023/09/16 11:40:02;;;;;;;5.93;2.22;;;;;;;;;;5046105;28;20066;-73
2023/09/16 11:43:40;;;;;;;6.88;2.30;;;;;;;;;;5045241;28;20053;-72
2023/09/16 11:47:20;;;;;;;12.23;2.47;;;;;;;;;;5047329;28;20045;-73
2023/09/16 11:51:01;;;;;;;10.98;2.42;;;;;;;;;;5037602;28;20084;-73
2023/09/16 11:54:41;;;;;;;5.68;2.42;;;;;;;;;;5044888;28;20041;-72
2023/09/16 11:58:21;;;;;;;10.15;2.55;;;;;;;;;;5047979;28;20140;-73
2023/09/16 12:02:05;;;;;;;8.30;3.15;;;;;;;;;;5042183;28;20041;-74
2023/09/16 12:05:45;;;;;;;6.70;2.90;;;;;;;;;;5048050;28;20037;-73
2023/09/16 12:09:28;;;;;;;13.60;3.70;;;;;;;;;;5043283;28;20134;-75
2023/09/16 12:13:13;;;;;;;7.18;3.05;;;;;;;;;;5046262;28;20053;-74
2023/09/16 12:16:57;;;;;;;7.50;2.97;;;;;;;;;;5040900;28;20084;-75
2023/09/16 12:20:38;;;;;;;7.10;2.90;;;;;;;;;;5042084;28;20060;-73
2023/09/16 12:24:18;;;;;;;9.48;2.90;;;;;;;;;;5055418;28;20044;-73
2023/09/16 12:27:58;;;;;;;9.73;3.17;;;;;;;;;;5051121;28;20135;-75
2023/09/16 12:31:42;;;;;;;6.22;2.83;;;;;;;;;;5048721;28;20055;-75
2023/09/16 12:35:26;;;;;;;10.38;2.95;;;;;;;;;;5049569;28;20048;-75
2023/09/16 12:39:06;;;;;;;11.88;2.88;;;;;;;;;;5045985;28;20128;-75
2023/09/16 12:42:46;;;;;;;8.80;2.67;;;;;;;;;;5046298;28;20354;-74
2023/09/16 12:46:27;;;;;;;11.27;3.83;;;;;;;;;;5041272;28;20049;-75
2023/09/16 12:50:07;;;;;;;12.02;3.33;;;;;;;;;;5039593;28;20073;-72
2023/09/16 12:53:49;;;;;;;10.23;3.03;;;;;;;;;;5046729;28;20041;-76
2023/09/16 12:57:29;;;;;;;13.45;3.00;;;;;;;;;;5048278;28;20524;-77
2023/09/16 13:01:09;;;;;;;8.35;2.20;;;;;;;;;;5045861;28;20053;-74
2023/09/16 13:04:50;;;;;;;9.57;2.58;;;;;;;;;;5044576;28;20053;-75
2023/09/16 13:08:30;;;;;;;10.85;2.75;;;;;;;;;;5039486;28;20068;-74
2023/09/16 13:12:10;;;;;;;11.40;2.50;;;;;;;;;;5040852;28;20049;-74
2023/09/16 13:15:51;;;;;;;12.23;2.70;;;;;;;;;;5045133;28;20106;-74
2023/09/16 13:19:31;;;;;;;12.80;2.60;;;;;;;;;;5040990;28;20687;-74
2023/09/16 13:23:14;;;;;;;12.25;2.63;;;;;;;;;;5044349;28;20439;-73
2023/09/16 13:26:55;;;;;;;8.77;2.20;;;;;;;;;;5044960;28;20086;-74
2023/09/16 13:30:40;;;;;;;16.10;2.33;;;;;;;;;;5036845;28;20838;-77
2023/09/16 13:34:05;;;;;;;10.00;2.45;;;;;;;;;;5044171;28;20401;-75
2023/09/16 13:37:45;;;;;;;9.73;2.45;;;;;;;;;;5040699;28;20045;-71
2023/09/16 13:41:28;;;;;;;7.47;2.00;;;;;;;;;;5036621;28;20440;-72
2023/09/16 13:45:09;;;;;;;9.15;2.47;;;;;;;;;;5047831;28;20044;-73
2023/09/16 13:48:54;;;;;;;12.57;2.67;;;;;;;;;;5036558;28;20432;-74
2023/09/16 13:52:33;;;;;;;12.32;2.63;;;;;;;;;;5042585;28;20122;-73
2023/09/16 13:56:13;;;;;;;19.95;3.03;;;;;;;;;;5050341;28;20154;-72
2023/09/16 13:59:54;;;;;;;12.57;2.30;;;;;;;;;;5042199;28;20114;-73
2023/09/16 14:03:37;;;;;;;11.38;2.78;;;;;;;;;;5041383;28;20392;-75
2023/09/16 14:07:17;;;;;;;14.85;2.63;;;;;;;;;;5046745;28;20049;-76
2023/09/16 14:10:59;;;;;;;19.80;3.33;;;;;;;;;;5040343;28;20049;-73
2023/09/16 14:14:42;;;;;;;13.02;2.90;;;;;;;;;;5044173;28;20435;-73
2023/09/16 14:18:22;;;;;;;16.02;2.50;;;;;;;;;;5047090;28;20053;-73
2023/09/16 14:22:02;;;;;;;11.75;2.90;;;;;;;;;;5036970;28;20054;-74
2023/09/16 14:25:43;;;;;;;13.77;2.92;;;;;;;;;;5037790;28;20048;-74
2023/09/16 14:29:24;;;;;;;9.63;2.25;;;;;;;;;;5044197;28;20056;-76
2023/09/16 14:33:06;;;;;;;14.75;2.33;;;;;;;;;;5044178;28;20089;-75
2023/09/16 14:36:46;;;;;;;11.35;2.47;;;;;;;;;;5045110;28;20789;-77
2023/09/16 14:40:27;;;;;;;12.27;2.50;;;;;;;;;;5040296;28;20570;-77
2023/09/16 14:44:09;;;;;;;18.70;3.05;;;;;;;;;;5039635;28;20048;-77
2023/09/16 14:47:50;;;;;;;21.80;2.97;;;;;;;;;;5048190;28;20075;-74
2023/09/16 14:51:30;;;;;;;19.30;3.55;;;;;;;;;;5041723;28;20053;-73
2023/09/16 14:55:12;;;;;;;27.13;3.38;;;;;;;;;;5041601;28;20040;-73
2023/09/16 14:58:52;;;;;;;21.85;3.28;;;;;;;;;;5042558;28;20048;-74
2023/09/16 15:02:34;;;;;;;16.23;2.88;;;;;;;;;;5035363;28;20053;-74
2023/09/16 15:06:14;;;;;;;15.63;2.95;;;;;;;;;;5041574;28;20063;-76
2023/09/16 15:09:54;;;;;;;16.15;2.72;;;;;;;;;;5048882;28;20037;-75
2023/09/16 15:13:35;;;;;;;13.10;2.70;;;;;;;;;;5046797;28;20048;-75
2023/09/16 15:17:15;;;;;;;23.10;2.90;;;;;;;;;;5040287;28;20065;-74
2023/09/16 15:20:56;;;;;;;24.40;3.28;;;;;;;;;;5045868;28;20073;-73
2023/09/16 15:24:37;;;;;;;19.25;3.47;;;;;;;;;;5050258;28;20060;-73
2023/09/16 15:28:17;;;;;;;14.75;2.65;;;;;;;;;;5046719;28;20133;-73
2023/09/16 15:31:58;;;;;;;17.48;2.63;;;;;;;;;;5038664;28;20396;-72
2023/09/16 15:35:38;;;;;;;18.95;3.03;;;;;;;;;;5044090;28;20048;-72
2023/09/16 15:39:20;;;;;;;15.48;2.50;;;;;;;;;;5045390;28;20041;-73
2023/09/16 15:43:01;;;;;;;14.00;2.53;;;;;;;;;;5046140;28;20444;-71
2023/09/16 15:46:42;;;;;;;17.08;2.80;;;;;;;;;;5039736;28;20080;-73
2023/09/16 15:50:22;;;;;;;16.33;2.70;;;;;;;;;;5046475;28;20437;-73
2023/09/16 15:54:02;;;;;;;10.00;2.90;;;;;;;;;;5044436;28;20055;-73
2023/09/16 15:57:44;;;;;;;18.45;3.03;;;;;;;;;;5050412;28;20103;-73
2023/09/16 16:01:27;;;;;;;17.75;2.92;;;;;;;;;;5047907;28;20497;-74
2023/09/16 16:05:09;;;;;;;16.85;2.85;;;;;;;;;;5046471;28;20226;-74
2023/09/16 16:08:50;;;;;;;19.05;2.92;;;;;;;;;;5044849;28;20376;-74
2023/09/16 16:12:31;;;;;;;19.38;3.08;;;;;;;;;;5046902;28;20057;-74
2023/09/16 16:16:14;;;;;;;11.52;2.58;;;;;;;;;;5045563;28;20452;-73
2023/09/16 16:19:52;;;;;;;19.45;2.85;;;;;;;;;;5042242;28;20059;-76
2023/09/16 16:22:54;;;;;;;16.00;3.38;;;;;;;;;;5043133;28;20044;-75
2023/09/16 16:26:02;;;;;;;17.45;3.20;;;;;;;;;;5034395;28;20111;-75
2023/09/16 16:29:41;;;;;;;18.10;3.08;;;;;;;;;;5046007;28;20052;-75
2023/09/16 16:32:43;;;;;;;13.52;3.10;;;;;;;;;;5038515;28;20131;-73
2023/09/16 16:35:09;;;;;;;16.20;3.15;;;;;;;;;;5030712;28;20617;-75
2023/09/16 16:37:35;;;;;;;10.68;2.55;;;;;;;;;;5030426;28;20049;-76
2023/09/16 16:40:01;;;;;;;17.55;3.15;;;;;;;;;;5033651;28;20052;-77
2023/09/16 16:42:27;;;;;;;24.05;3.22;;;;;;;;;;5033410;28;20412;-72
2023/09/16 16:44:53;;;;;;;23.27;3.60;;;;;;;;;;5032013;28;20052;-78
2023/09/16 16:47:20;;;;;;;14.35;2.90;;;;;;;;;;5031855;28;20056;-76
2023/09/16 16:49:51;;;;;;;20.20;3.00;;;;;;;;;;5033700;28;21086;-80
2023/09/16 16:52:18;;;;;;;11.57;3.08;;;;;;;;;;5035839;28;20061;-73
2023/09/16 16:54:46;;;;;;;16.50;2.83;;;;;;;;;;5028761;28;20083;-77
2023/09/16 16:57:13;;;;;;;17.85;2.55;;;;;;;;;;5030451;28;20052;-74
2023/09/16 16:59:40;;;;;;;15.25;2.90;;;;;;;;;;5035493;28;20485;-72
2023/09/16 17:02:07;;;;;;;11.23;2.53;;;;;;;;;;5026137;28;20108;-76
2023/09/16 17:04:34;;;;;;;15.57;3.08;;;;;;;;;;5031772;28;20402;-73
2023/09/16 17:07:02;;;;;;;12.27;2.95;;;;;;;;;;5039717;28;20448;-82
2023/09/16 17:09:28;;;;;;;16.17;3.03;;;;;;;;;;5045235;28;20053;-77
2023/09/16 17:11:54;;;;;;;18.60;3.33;;;;;;;;;;5029142;28;20045;-78